sensor_id;sensor_type;location;lat;lon;timestamp;temperature;humidity
70550;DHT22;58101;48.658;2.328;2022-09-30T00:01:16;8.50;99.90
70550;DHT22;58101;48.658;2.328;2022-09-30T00:03:42;8.50;99.90
70550;DHT22;58101;48.658;2.328;2022-09-30T00:06:08;8.50;99.90
70550;DHT22;58101;48.658;2.328;2022-09-30T00:08:36;8.50;99.90
70550;DHT22;58101;48.658;2.328;2022-09-30T00:11:05;8.50;99.90
70550;DHT22;58101;48.658;2.328;2022-09-30T00:13:35;8.50;99.90
70550;DHT22;58101;48.658;2.328;2022-09-30T00:16:02;8.40;99.90
70550;DHT22;58101;48.658;2.328;2022-09-30T00:18:28;8.40;99.90
70550;DHT22;58101;48.658;2.328;2022-09-30T00:20:54;8.40;99.90
70550;DHT22;58101;48.658;2.328;2022-09-30T00:23:21;8.40;99.90
70550;DHT22;58101;48.658;2.328;2022-09-30T00:25:47;8.40;99.90
70550;DHT22;58101;48.658;2.328;2022-09-30T00:28:15;8.40;99.90
70550;DHT22;58101;48.658;2.328;2022-09-30T00:30:41;8.40;99.90
70550;DHT22;58101;48.658;2.328;2022-09-30T00:33:08;8.30;99.90
70550;DHT22;58101;48.658;2.328;2022-09-30T00:35:33;8.30;99.90
70550;DHT22;58101;48.658;2.328;2022-09-30T00:38:03;8.30;99.90
70550;DHT22;58101;48.658;2.328;2022-09-30T00:40:29;8.30;99.90
70550;DHT22;58101;48.658;2.328;2022-09-30T00:42:55;8.30;99.90
70550;DHT22;58101;48.658;2.328;2022-09-30T00:45:27;8.20;99.90
70550;DHT22;58101;48.658;2.328;2022-09-30T00:48:16;8.20;99.90
70550;DHT22;58101;48.658;2.328;2022-09-30T00:50:46;8.20;99.90
70550;DHT22;58101;48.658;2.328;2022-09-30T00:53:53;8.10;99.90
70550;DHT22;58101;48.658;2.328;2022-09-30T00:56:27;8.20;99.90
70550;DHT22;58101;48.658;2.328;2022-09-30T01:01:26;8.10;99.90
70550;DHT22;58101;48.658;2.328;2022-09-30T01:04:11;8.10;99.90
70550;DHT22;58101;48.658;2.328;2022-09-30T01:06:37;8.10;99.90
70550;DHT22;58101;48.658;2.328;2022-09-30T01:09:03;8.10;99.90
70550;DHT22;58101;48.658;2.328;2022-09-30T01:11:29;8.00;99.90
70550;DHT22;58101;48.658;2.328;2022-09-30T01:14:01;8.00;99.90
70550;DHT22;58101;48.658;2.328;2022-09-30T01:19:53;8.00;99.90
70550;DHT22;58101;48.658;2.328;2022-09-30T01:30:48;7.90;99.90
70550;DHT22;58101;48.658;2.328;2022-09-30T01:33:20;7.90;99.90
70550;DHT22;58101;48.658;2.328;2022-09-30T01:41:52;7.90;99.90
70550;DHT22;58101;48.658;2.328;2022-09-30T01:44:35;7.90;99.90
70550;DHT22;58101;48.658;2.328;2022-09-30T01:47:26;7.80;99.90
70550;DHT22;58101;48.658;2.328;2022-09-30T01:53:17;7.80;99.90
70550;DHT22;58101;48.658;2.328;2022-09-30T01:55:56;7.80;99.90
70550;DHT22;58101;48.658;2.328;2022-09-30T01:58:51;7.80;99.90
70550;DHT22;58101;48.658;2.328;2022-09-30T02:04:21;7.70;99.90
70550;DHT22;58101;48.658;2.328;2022-09-30T02:06:51;7.80;99.90
70550;DHT22;58101;48.658;2.328;2022-09-30T02:09:32;7.60;99.90
70550;DHT22;58101;48.658;2.328;2022-09-30T02:12:03;7.60;99.90
70550;DHT22;58101;48.658;2.328;2022-09-30T02:17:11;7.60;99.90
70550;DHT22;58101;48.658;2.328;2022-09-30T02:19:44;7.60;99.90
70550;DHT22;58101;48.658;2.328;2022-09-30T02:22:17;7.50;99.90
70550;DHT22;58101;48.658;2.328;2022-09-30T02:24:43;7.60;99.90
70550;DHT22;58101;48.658;2.328;2022-09-30T02:27:22;7.60;99.90
70550;DHT22;58101;48.658;2.328;2022-09-30T02:29:55;7.50;99.90
70550;DHT22;58101;48.658;2.328;2022-09-30T02:32:25;7.60;99.90
70550;DHT22;58101;48.658;2.328;2022-09-30T02:35:10;7.50;99.90
70550;DHT22;58101;48.658;2.328;2022-09-30T02:37:41;7.50;99.90
70550;DHT22;58101;48.658;2.328;2022-09-30T02:40:12;7.60;99.90
70550;DHT22;58101;48.658;2.328;2022-09-30T02:42:39;7.60;99.90
70550;DHT22;58101;48.658;2.328;2022-09-30T02:45:09;7.50;99.90
70550;DHT22;58101;48.658;2.328;2022-09-30T02:50:35;7.40;99.90
70550;DHT22;58101;48.658;2.328;2022-09-30T02:56:16;7.40;99.90
70550;DHT22;58101;48.658;2.328;2022-09-30T02:58:45;7.30;99.90
70550;DHT22;58101;48.658;2.328;2022-09-30T03:01:13;7.30;99.90
70550;DHT22;58101;48.658;2.328;2022-09-30T03:04:09;7.30;99.90
70550;DHT22;58101;48.658;2.328;2022-09-30T03:06:37;7.20;99.90
70550;DHT22;58101;48.658;2.328;2022-09-30T03:09:03;7.30;99.90
70550;DHT22;58101;48.658;2.328;2022-09-30T03:11:30;7.20;99.90
70550;DHT22;58101;48.658;2.328;2022-09-30T03:17:48;7.30;99.90
70550;DHT22;58101;48.658;2.328;2022-09-30T03:27:30;7.10;99.90
70550;DHT22;58101;48.658;2.328;2022-09-30T03:30:03;7.10;99.90
70550;DHT22;58101;48.658;2.328;2022-09-30T03:35:36;7.00;99.90
70550;DHT22;58101;48.658;2.328;2022-09-30T03:45:54;6.90;99.90
70550;DHT22;58101;48.658;2.328;2022-09-30T03:48:22;6.90;99.90
70550;DHT22;58101;48.658;2.328;2022-09-30T03:50:50;6.90;99.90
70550;DHT22;58101;48.658;2.328;2022-09-30T03:53:16;6.90;99.90
70550;DHT22;58101;48.658;2.328;2022-09-30T03:55:50;7.10;99.90
70550;DHT22;58101;48.658;2.328;2022-09-30T03:58:17;6.90;99.90
70550;DHT22;58101;48.658;2.328;2022-09-30T04:00:49;6.80;99.90
70550;DHT22;58101;48.658;2.328;2022-09-30T04:03:16;6.80;99.90
70550;DHT22;58101;48.658;2.328;2022-09-30T04:05:42;6.80;99.90
70550;DHT22;58101;48.658;2.328;2022-09-30T04:08:08;6.80;99.90
70550;DHT22;58101;48.658;2.328;2022-09-30T04:10:34;6.80;99.90
70550;DHT22;58101;48.658;2.328;2022-09-30T04:13:00;6.80;99.90
70550;DHT22;58101;48.658;2.328;2022-09-30T04:15:25;6.80;99.90
70550;DHT22;58101;48.658;2.328;2022-09-30T04:17:52;6.80;99.90
70550;DHT22;58101;48.658;2.328;2022-09-30T04:20:17;6.80;99.90
70550;DHT22;58101;48.658;2.328;2022-09-30T04:22:43;6.80;99.90
70550;DHT22;58101;48.658;2.328;2022-09-30T04:25:09;6.70;99.90
70550;DHT22;58101;48.658;2.328;2022-09-30T04:27:34;6.70;99.90
70550;DHT22;58101;48.658;2.328;2022-09-30T04:30:00;6.70;99.90
70550;DHT22;58101;48.658;2.328;2022-09-30T04:32:26;6.70;99.90
70550;DHT22;58101;48.658;2.328;2022-09-30T04:34:53;6.80;99.90
70550;DHT22;58101;48.658;2.328;2022-09-30T04:37:19;6.80;99.90
70550;DHT22;58101;48.658;2.328;2022-09-30T04:39:45;6.80;99.90
70550;DHT22;58101;48.658;2.328;2022-09-30T04:42:11;6.80;99.90
70550;DHT22;58101;48.658;2.328;2022-09-30T04:44:36;6.80;99.90
70550;DHT22;58101;48.658;2.328;2022-09-30T04:47:02;6.80;99.90
70550;DHT22;58101;48.658;2.328;2022-09-30T04:49:28;6.80;99.90
70550;DHT22;58101;48.658;2.328;2022-09-30T04:51:54;6.70;99.90
70550;DHT22;58101;48.658;2.328;2022-09-30T04:54:19;6.70;99.90
70550;DHT22;58101;48.658;2.328;2022-09-30T04:56:45;6.70;99.90
70550;DHT22;58101;48.658;2.328;2022-09-30T04:59:11;6.70;99.90
70550;DHT22;58101;48.658;2.328;2022-09-30T05:01:36;6.70;99.90
70550;DHT22;58101;48.658;2.328;2022-09-30T05:04:03;6.70;99.90
70550;DHT22;58101;48.658;2.328;2022-09-30T05:06:29;6.60;99.90
70550;DHT22;58101;48.658;2.328;2022-09-30T05:08:55;6.70;99.90
70550;DHT22;58101;48.658;2.328;2022-09-30T05:11:21;6.60;99.90
70550;DHT22;58101;48.658;2.328;2022-09-30T05:13:47;6.70;99.90
70550;DHT22;58101;48.658;2.328;2022-09-30T05:16:14;6.60;99.90
70550;DHT22;58101;48.658;2.328;2022-09-30T05:18:40;6.60;99.90
70550;DHT22;58101;48.658;2.328;2022-09-30T05:21:10;6.60;99.90
70550;DHT22;58101;48.658;2.328;2022-09-30T05:23:36;6.60;99.90
70550;DHT22;58101;48.658;2.328;2022-09-30T05:26:02;6.60;99.90
70550;DHT22;58101;48.658;2.328;2022-09-30T05:28:29;6.60;99.90
70550;DHT22;58101;48.658;2.328;2022-09-30T05:31:00;6.50;99.90
70550;DHT22;58101;48.658;2.328;2022-09-30T05:33:27;6.50;99.90
70550;DHT22;58101;48.658;2.328;2022-09-30T05:36:04;6.60;99.90
70550;DHT22;58101;48.658;2.328;2022-09-30T05:38:29;6.50;99.90
70550;DHT22;58101;48.658;2.328;2022-09-30T05:40:56;6.50;99.90
70550;DHT22;58101;48.658;2.328;2022-09-30T05:43:22;6.50;99.90
70550;DHT22;58101;48.658;2.328;2022-09-30T05:45:55;6.60;99.90
70550;DHT22;58101;48.658;2.328;2022-09-30T05:48:21;6.60;99.90
70550;DHT22;58101;48.658;2.328;2022-09-30T05:50:47;6.60;99.90
70550;DHT22;58101;48.658;2.328;2022-09-30T05:53:15;6.60;99.90
70550;DHT22;58101;48.658;2.328;2022-09-30T05:55:44;6.60;99.90
70550;DHT22;58101;48.658;2.328;2022-09-30T05:58:12;6.60;99.90
70550;DHT22;58101;48.658;2.328;2022-09-30T06:00:40;6.60;99.90
70550;DHT22;58101;48.658;2.328;2022-09-30T06:03:06;6.60;99.90
70550;DHT22;58101;48.658;2.328;2022-09-30T06:05:31;6.70;99.90
70550;DHT22;58101;48.658;2.328;2022-09-30T06:07:57;6.70;99.90
70550;DHT22;58101;48.658;2.328;2022-09-30T06:10:22;6.70;99.90
70550;DHT22;58101;48.658;2.328;2022-09-30T06:12:48;6.70;99.90
70550;DHT22;58101;48.658;2.328;2022-09-30T06:15:14;6.70;99.90
70550;DHT22;58101;48.658;2.328;2022-09-30T06:17:39;6.70;99.90
70550;DHT22;58101;48.658;2.328;2022-09-30T06:20:10;6.80;99.90
70550;DHT22;58101;48.658;2.328;2022-09-30T06:22:36;6.80;99.90
70550;DHT22;58101;48.658;2.328;2022-09-30T06:25:04;6.80;99.90
70550;DHT22;58101;48.658;2.328;2022-09-30T06:27:32;6.80;99.90
70550;DHT22;58101;48.658;2.328;2022-09-30T06:29:57;6.90;99.90
70550;DHT22;58101;48.658;2.328;2022-09-30T06:32:23;6.90;99.90
70550;DHT22;58101;48.658;2.328;2022-09-30T06:34:51;7.00;99.90
70550;DHT22;58101;48.658;2.328;2022-09-30T06:37:16;7.00;99.90
70550;DHT22;58101;48.658;2.328;2022-09-30T06:39:43;7.10;99.90
70550;DHT22;58101;48.658;2.328;2022-09-30T06:42:09;7.10;99.90
70550;DHT22;58101;48.658;2.328;2022-09-30T06:44:36;7.20;99.90
70550;DHT22;58101;48.658;2.328;2022-09-30T06:47:01;7.20;99.90
70550;DHT22;58101;48.658;2.328;2022-09-30T06:49:27;7.30;99.90
70550;DHT22;58101;48.658;2.328;2022-09-30T06:51:52;7.40;99.90
70550;DHT22;58101;48.658;2.328;2022-09-30T06:54:18;7.50;99.90
70550;DHT22;58101;48.658;2.328;2022-09-30T06:56:46;7.50;99.90
70550;DHT22;58101;48.658;2.328;2022-09-30T06:59:12;7.60;99.90
70550;DHT22;58101;48.658;2.328;2022-09-30T07:01:38;7.70;99.90
70550;DHT22;58101;48.658;2.328;2022-09-30T07:04:04;7.70;99.90
70550;DHT22;58101;48.658;2.328;2022-09-30T07:06:34;7.90;99.90
70550;DHT22;58101;48.658;2.328;2022-09-30T07:08:59;8.00;99.90
70550;DHT22;58101;48.658;2.328;2022-09-30T07:11:25;8.10;99.90
70550;DHT22;58101;48.658;2.328;2022-09-30T07:13:51;8.20;99.90
70550;DHT22;58101;48.658;2.328;2022-09-30T07:16:18;8.30;99.90
70550;DHT22;58101;48.658;2.328;2022-09-30T07:18:45;8.60;99.90
70550;DHT22;58101;48.658;2.328;2022-09-30T07:21:13;8.60;99.90
70550;DHT22;58101;48.658;2.328;2022-09-30T07:23:41;8.80;99.90
70550;DHT22;58101;48.658;2.328;2022-09-30T07:26:16;8.90;99.90
70550;DHT22;58101;48.658;2.328;2022-09-30T07:28:42;9.00;99.90
70550;DHT22;58101;48.658;2.328;2022-09-30T07:31:13;9.20;99.90
70550;DHT22;58101;48.658;2.328;2022-09-30T07:33:41;9.20;99.90
70550;DHT22;58101;48.658;2.328;2022-09-30T07:36:09;9.50;99.90
70550;DHT22;58101;48.658;2.328;2022-09-30T07:38:37;9.50;99.90
70550;DHT22;58101;48.658;2.328;2022-09-30T07:41:15;9.70;99.90
70550;DHT22;58101;48.658;2.328;2022-09-30T07:43:44;9.80;99.90
70550;DHT22;58101;48.658;2.328;2022-09-30T07:46:16;10.00;99.90
70550;DHT22;58101;48.658;2.328;2022-09-30T07:48:44;10.30;99.90
70550;DHT22;58101;48.658;2.328;2022-09-30T07:53:53;10.80;99.90
70550;DHT22;58101;48.658;2.328;2022-09-30T07:56:20;10.90;99.90
70550;DHT22;58101;48.658;2.328;2022-09-30T07:58:46;11.20;99.90
70550;DHT22;58101;48.658;2.328;2022-09-30T08:01:12;11.50;99.90
70550;DHT22;58101;48.658;2.328;2022-09-30T08:03:38;12.10;99.90
70550;DHT22;58101;48.658;2.328;2022-09-30T08:06:06;13.20;99.90
70550;DHT22;58101;48.658;2.328;2022-09-30T08:08:32;14.80;99.90
70550;DHT22;58101;48.658;2.328;2022-09-30T08:10:59;16.60;94.60
70550;DHT22;58101;48.658;2.328;2022-09-30T08:13:25;18.40;87.20
70550;DHT22;58101;48.658;2.328;2022-09-30T08:15:50;20.00;77.60
70550;DHT22;58101;48.658;2.328;2022-09-30T08:18:16;21.30;66.70
70550;DHT22;58101;48.658;2.328;2022-09-30T08:20:42;22.10;60.40
70550;DHT22;58101;48.658;2.328;2022-09-30T08:23:07;23.00;57.10
70550;DHT22;58101;48.658;2.328;2022-09-30T08:25:33;23.70;54.00
70550;DHT22;58101;48.658;2.328;2022-09-30T08:27:58;24.40;52.20
70550;DHT22;58101;48.658;2.328;2022-09-30T08:30:24;25.00;49.40
70550;DHT22;58101;48.658;2.328;2022-09-30T08:32:49;25.50;48.50
70550;DHT22;58101;48.658;2.328;2022-09-30T08:35:15;26.00;47.40
70550;DHT22;58101;48.658;2.328;2022-09-30T08:37:41;26.20;44.50
70550;DHT22;58101;48.658;2.328;2022-09-30T08:40:23;26.40;43.20
70550;DHT22;58101;48.658;2.328;2022-09-30T08:43:46;26.80;43.00
70550;DHT22;58101;48.658;2.328;2022-09-30T08:46:13;27.10;40.30
70550;DHT22;58101;48.658;2.328;2022-09-30T08:48:51;27.10;40.70
70550;DHT22;58101;48.658;2.328;2022-09-30T08:51:44;27.30;39.70
70550;DHT22;58101;48.658;2.328;2022-09-30T08:54:13;27.70;40.30
70550;DHT22;58101;48.658;2.328;2022-09-30T08:56:42;28.10;37.90
70550;DHT22;58101;48.658;2.328;2022-09-30T09:02:22;27.60;37.60
70550;DHT22;58101;48.658;2.328;2022-09-30T09:04:50;28.10;37.40
70550;DHT22;58101;48.658;2.328;2022-09-30T09:07:57;28.20;35.60
70550;DHT22;58101;48.658;2.328;2022-09-30T09:18:55;29.10;35.00
70550;DHT22;58101;48.658;2.328;2022-09-30T09:24:15;29.10;34.00
70550;DHT22;58101;48.658;2.328;2022-09-30T09:26:41;29.50;34.90
70550;DHT22;58101;48.658;2.328;2022-09-30T09:31:39;29.30;32.30
70550;DHT22;58101;48.658;2.328;2022-09-30T09:34:10;29.80;33.20
70550;DHT22;58101;48.658;2.328;2022-09-30T09:45:03;30.50;30.90
70550;DHT22;58101;48.658;2.328;2022-09-30T09:47:30;30.70;30.80
70550;DHT22;58101;48.658;2.328;2022-09-30T09:49:59;30.70;30.90
70550;DHT22;58101;48.658;2.328;2022-09-30T09:55:08;31.30;30.00
70550;DHT22;58101;48.658;2.328;2022-09-30T09:57:36;31.60;29.30
70550;DHT22;58101;48.658;2.328;2022-09-30T10:00:10;31.90;28.90
70550;DHT22;58101;48.658;2.328;2022-09-30T10:03:11;31.80;28.80
70550;DHT22;58101;48.658;2.328;2022-09-30T10:05:40;31.30;28.10
70550;DHT22;58101;48.658;2.328;2022-09-30T10:08:13;31.70;29.10
70550;DHT22;58101;48.658;2.328;2022-09-30T10:10:47;32.10;28.60
70550;DHT22;58101;48.658;2.328;2022-09-30T10:13:30;32.20;27.60
70550;DHT22;58101;48.658;2.328;2022-09-30T10:15:58;32.50;28.20
70550;DHT22;58101;48.658;2.328;2022-09-30T10:18:34;32.60;28.20
70550;DHT22;58101;48.658;2.328;2022-09-30T10:21:27;32.50;27.00
70550;DHT22;58101;48.658;2.328;2022-09-30T10:23:53;32.00;27.60
70550;DHT22;58101;48.658;2.328;2022-09-30T10:26:21;32.10;27.90
70550;DHT22;58101;48.658;2.328;2022-09-30T10:29:01;32.40;26.80
70550;DHT22;58101;48.658;2.328;2022-09-30T10:36:44;32.50;25.80
70550;DHT22;58101;48.658;2.328;2022-09-30T10:39:28;32.40;26.60
70550;DHT22;58101;48.658;2.328;2022-09-30T10:42:21;32.50;27.00
70550;DHT22;58101;48.658;2.328;2022-09-30T10:44:51;32.90;26.20
70550;DHT22;58101;48.658;2.328;2022-09-30T10:47:21;33.20;26.20
70550;DHT22;58101;48.658;2.328;2022-09-30T10:50:11;33.90;25.90
70550;DHT22;58101;48.658;2.328;2022-09-30T10:52:59;32.90;24.90
70550;DHT22;58101;48.658;2.328;2022-09-30T10:55:32;32.40;25.40
70550;DHT22;58101;48.658;2.328;2022-09-30T10:58:19;32.50;26.60
70550;DHT22;58101;48.658;2.328;2022-09-30T11:00:49;32.90;25.80
70550;DHT22;58101;48.658;2.328;2022-09-30T11:03:20;32.30;25.30
70550;DHT22;58101;48.658;2.328;2022-09-30T11:05:48;31.90;25.10
70550;DHT22;58101;48.658;2.328;2022-09-30T11:08:35;32.20;25.20
70550;DHT22;58101;48.658;2.328;2022-09-30T11:11:24;31.90;26.10
70550;DHT22;58101;48.658;2.328;2022-09-30T11:19:30;32.40;26.10
70550;DHT22;58101;48.658;2.328;2022-09-30T11:22:22;32.70;25.40
70550;DHT22;58101;48.658;2.328;2022-09-30T11:24:53;32.10;24.80
70550;DHT22;58101;48.658;2.328;2022-09-30T11:27:55;31.10;25.10
70550;DHT22;58101;48.658;2.328;2022-09-30T11:36:15;30.60;25.60
70550;DHT22;58101;48.658;2.328;2022-09-30T11:41:44;30.10;27.70
70550;DHT22;58101;48.658;2.328;2022-09-30T11:47:17;30.40;27.90
70550;DHT22;58101;48.658;2.328;2022-09-30T11:57:46;30.80;28.80
70550;DHT22;58101;48.658;2.328;2022-09-30T12:00:15;30.90;27.50
70550;DHT22;58101;48.658;2.328;2022-09-30T12:02:55;30.10;27.30
70550;DHT22;58101;48.658;2.328;2022-09-30T12:05:30;29.90;28.50
70550;DHT22;58101;48.658;2.328;2022-09-30T12:10:32;29.60;28.40
70550;DHT22;58101;48.658;2.328;2022-09-30T12:13:03;29.10;28.40
70550;DHT22;58101;48.658;2.328;2022-09-30T12:15:31;28.30;31.20
70550;DHT22;58101;48.658;2.328;2022-09-30T12:18:02;28.10;30.50
70550;DHT22;58101;48.658;2.328;2022-09-30T12:20:40;28.00;32.40
70550;DHT22;58101;48.658;2.328;2022-09-30T12:23:41;27.70;30.30
70550;DHT22;58101;48.658;2.328;2022-09-30T12:26:08;27.10;31.60
70550;DHT22;58101;48.658;2.328;2022-09-30T12:28:44;26.60;33.10
70550;DHT22;58101;48.658;2.328;2022-09-30T12:41:06;25.50;33.50
70550;DHT22;58101;48.658;2.328;2022-09-30T12:48:58;24.70;36.90
70550;DHT22;58101;48.658;2.328;2022-09-30T12:51:33;24.30;36.20
70550;DHT22;58101;48.658;2.328;2022-09-30T12:56:40;23.90;38.70
70550;DHT22;58101;48.658;2.328;2022-09-30T12:59:08;23.80;38.00
70550;DHT22;58101;48.658;2.328;2022-09-30T13:01:38;23.90;37.70
70550;DHT22;58101;48.658;2.328;2022-09-30T13:12:14;22.80;39.30
70550;DHT22;58101;48.658;2.328;2022-09-30T13:14:41;22.60;40.80
70550;DHT22;58101;48.658;2.328;2022-09-30T13:19:42;22.80;41.10
70550;DHT22;58101;48.658;2.328;2022-09-30T13:27:46;21.90;39.90
70550;DHT22;58101;48.658;2.328;2022-09-30T13:35:48;21.60;41.40
70550;DHT22;58101;48.658;2.328;2022-09-30T13:41:00;21.40;41.40
70550;DHT22;58101;48.658;2.328;2022-09-30T13:43:34;21.20;43.50
70550;DHT22;58101;48.658;2.328;2022-09-30T13:46:30;21.00;43.00
70550;DHT22;58101;48.658;2.328;2022-09-30T13:51:48;20.90;41.90
70550;DHT22;58101;48.658;2.328;2022-09-30T13:56:49;20.40;44.00
70550;DHT22;58101;48.658;2.328;2022-09-30T13:59:20;20.20;45.90
70550;DHT22;58101;48.658;2.328;2022-09-30T14:16:05;19.70;48.00
70550;DHT22;58101;48.658;2.328;2022-09-30T14:18:42;19.60;48.30
70550;DHT22;58101;48.658;2.328;2022-09-30T14:24:11;19.70;48.10
70550;DHT22;58101;48.658;2.328;2022-09-30T14:31:59;19.80;47.50
70550;DHT22;58101;48.658;2.328;2022-09-30T14:34:26;19.80;46.60
70550;DHT22;58101;48.658;2.328;2022-09-30T14:36:54;19.70;46.60
70550;DHT22;58101;48.658;2.328;2022-09-30T14:39:24;19.50;47.10
70550;DHT22;58101;48.658;2.328;2022-09-30T14:41:56;19.40;47.90
70550;DHT22;58101;48.658;2.328;2022-09-30T14:44:24;19.40;49.60
70550;DHT22;58101;48.658;2.328;2022-09-30T14:46:51;19.30;49.30
70550;DHT22;58101;48.658;2.328;2022-09-30T14:49:25;19.40;49.40
70550;DHT22;58101;48.658;2.328;2022-09-30T14:51:57;19.30;48.30
70550;DHT22;58101;48.658;2.328;2022-09-30T14:54:26;19.30;48.40
70550;DHT22;58101;48.658;2.328;2022-09-30T14:56:54;19.30;47.90
70550;DHT22;58101;48.658;2.328;2022-09-30T14:59:25;19.10;47.70
70550;DHT22;58101;48.658;2.328;2022-09-30T15:02:14;18.90;48.70
70550;DHT22;58101;48.658;2.328;2022-09-30T15:04:49;18.90;50.00
70550;DHT22;58101;48.658;2.328;2022-09-30T15:07:15;18.90;50.30
70550;DHT22;58101;48.658;2.328;2022-09-30T15:09:43;19.00;48.30
70550;DHT22;58101;48.658;2.328;2022-09-30T15:14:49;18.90;48.70
70550;DHT22;58101;48.658;2.328;2022-09-30T15:17:36;18.50;49.00
70550;DHT22;58101;48.658;2.328;2022-09-30T15:20:29;18.40;50.10
70550;DHT22;58101;48.658;2.328;2022-09-30T15:22:57;18.30;50.70
70550;DHT22;58101;48.658;2.328;2022-09-30T15:25:24;18.40;50.50
70550;DHT22;58101;48.658;2.328;2022-09-30T15:27:50;18.40;50.20
70550;DHT22;58101;48.658;2.328;2022-09-30T15:32:45;18.30;49.30
70550;DHT22;58101;48.658;2.328;2022-09-30T15:35:15;18.20;50.10
70550;DHT22;58101;48.658;2.328;2022-09-30T15:37:43;18.10;50.50
70550;DHT22;58101;48.658;2.328;2022-09-30T15:40:18;17.90;51.20
70550;DHT22;58101;48.658;2.328;2022-09-30T15:43:07;17.80;52.00
70550;DHT22;58101;48.658;2.328;2022-09-30T15:45:37;17.70;52.80
70550;DHT22;58101;48.658;2.328;2022-09-30T15:50:48;17.60;53.80
70550;DHT22;58101;48.658;2.328;2022-09-30T15:53:25;17.60;53.80
70550;DHT22;58101;48.658;2.328;2022-09-30T15:55:55;17.60;54.20
70550;DHT22;58101;48.658;2.328;2022-09-30T16:04:06;17.50;54.60
70550;DHT22;58101;48.658;2.328;2022-09-30T16:06:51;17.50;55.20
70550;DHT22;58101;48.658;2.328;2022-09-30T16:14:24;17.40;55.70
70550;DHT22;58101;48.658;2.328;2022-09-30T16:16:57;17.30;55.80
70550;DHT22;58101;48.658;2.328;2022-09-30T16:19:24;17.30;56.50
70550;DHT22;58101;48.658;2.328;2022-09-30T16:21:51;17.40;56.60
70550;DHT22;58101;48.658;2.328;2022-09-30T16:26:54;17.40;56.80
70550;DHT22;58101;48.658;2.328;2022-09-30T16:29:21;17.30;56.90
70550;DHT22;58101;48.658;2.328;2022-09-30T16:31:49;17.30;57.40
70550;DHT22;58101;48.658;2.328;2022-09-30T16:34:27;17.30;57.40
70550;DHT22;58101;48.658;2.328;2022-09-30T16:36:56;17.20;57.20
70550;DHT22;58101;48.658;2.328;2022-09-30T16:39:27;17.20;57.50
70550;DHT22;58101;48.658;2.328;2022-09-30T16:41:53;17.10;58.00
70550;DHT22;58101;48.658;2.328;2022-09-30T16:44:19;17.10;58.20
70550;DHT22;58101;48.658;2.328;2022-09-30T16:46:45;17.10;58.50
70550;DHT22;58101;48.658;2.328;2022-09-30T16:49:15;17.00;58.50
70550;DHT22;58101;48.658;2.328;2022-09-30T16:51:42;16.90;59.10
70550;DHT22;58101;48.658;2.328;2022-09-30T16:54:08;16.90;59.60
70550;DHT22;58101;48.658;2.328;2022-09-30T16:56:34;16.80;59.50
70550;DHT22;58101;48.658;2.328;2022-09-30T16:58:59;16.80;59.70
70550;DHT22;58101;48.658;2.328;2022-09-30T17:01:25;16.70;60.00
70550;DHT22;58101;48.658;2.328;2022-09-30T17:03:52;16.70;60.70
70550;DHT22;58101;48.658;2.328;2022-09-30T17:06:19;16.60;60.60
70550;DHT22;58101;48.658;2.328;2022-09-30T17:08:50;16.60;61.00
70550;DHT22;58101;48.658;2.328;2022-09-30T17:11:18;16.50;61.00
70550;DHT22;58101;48.658;2.328;2022-09-30T17:13:44;16.40;61.40
70550;DHT22;58101;48.658;2.328;2022-09-30T17:16:10;16.40;61.60
70550;DHT22;58101;48.658;2.328;2022-09-30T17:18:35;16.30;61.60
70550;DHT22;58101;48.658;2.328;2022-09-30T17:21:01;16.30;62.00
70550;DHT22;58101;48.658;2.328;2022-09-30T17:23:27;16.30;62.30
70550;DHT22;58101;48.658;2.328;2022-09-30T17:25:53;16.10;62.50
70550;DHT22;58101;48.658;2.328;2022-09-30T17:28:19;16.20;63.10
70550;DHT22;58101;48.658;2.328;2022-09-30T17:30:45;16.10;63.50
70550;DHT22;58101;48.658;2.328;2022-09-30T17:33:12;16.10;63.90
70550;DHT22;58101;48.658;2.328;2022-09-30T17:35:39;16.10;64.20
70550;DHT22;58101;48.658;2.328;2022-09-30T17:38:09;16.00;64.40
70550;DHT22;58101;48.658;2.328;2022-09-30T17:40:35;15.90;64.70
70550;DHT22;58101;48.658;2.328;2022-09-30T17:43:19;15.90;65.10
70550;DHT22;58101;48.658;2.328;2022-09-30T17:45:46;15.80;65.40
70550;DHT22;58101;48.658;2.328;2022-09-30T17:48:14;15.80;65.60
70550;DHT22;58101;48.658;2.328;2022-09-30T17:50:45;15.70;65.70
70550;DHT22;58101;48.658;2.328;2022-09-30T17:53:12;15.70;66.10
70550;DHT22;58101;48.658;2.328;2022-09-30T17:55:42;15.70;66.30
70550;DHT22;58101;48.658;2.328;2022-09-30T17:58:09;15.70;66.20
70550;DHT22;58101;48.658;2.328;2022-09-30T18:00:36;15.90;66.80
70550;DHT22;58101;48.658;2.328;2022-09-30T18:03:02;15.70;66.40
70550;DHT22;58101;48.658;2.328;2022-09-30T18:05:29;15.70;66.60
70550;DHT22;58101;48.658;2.328;2022-09-30T18:07:56;15.70;66.60
70550;DHT22;58101;48.658;2.328;2022-09-30T18:10:22;15.70;66.60
70550;DHT22;58101;48.658;2.328;2022-09-30T18:12:48;15.60;66.40
70550;DHT22;58101;48.658;2.328;2022-09-30T18:15:17;15.60;66.40
70550;DHT22;58101;48.658;2.328;2022-09-30T18:17:43;15.60;66.60
70550;DHT22;58101;48.658;2.328;2022-09-30T18:20:09;15.50;67.00
70550;DHT22;58101;48.658;2.328;2022-09-30T18:22:35;15.50;66.70
70550;DHT22;58101;48.658;2.328;2022-09-30T18:25:01;15.50;66.90
70550;DHT22;58101;48.658;2.328;2022-09-30T18:27:46;15.50;67.10
70550;DHT22;58101;48.658;2.328;2022-09-30T18:30:12;15.40;67.10
70550;DHT22;58101;48.658;2.328;2022-09-30T18:32:37;15.40;67.20
70550;DHT22;58101;48.658;2.328;2022-09-30T18:35:04;15.40;67.40
70550;DHT22;58101;48.658;2.328;2022-09-30T18:37:34;15.40;67.60
70550;DHT22;58101;48.658;2.328;2022-09-30T18:40:00;15.30;67.50
70550;DHT22;58101;48.658;2.328;2022-09-30T18:42:25;15.40;67.60
70550;DHT22;58101;48.658;2.328;2022-09-30T18:44:51;15.40;67.70
70550;DHT22;58101;48.658;2.328;2022-09-30T18:47:19;15.30;67.80
70550;DHT22;58101;48.658;2.328;2022-09-30T18:49:44;15.30;68.00
70550;DHT22;58101;48.658;2.328;2022-09-30T18:52:10;15.30;68.00
70550;DHT22;58101;48.658;2.328;2022-09-30T18:54:36;15.30;68.10
70550;DHT22;58101;48.658;2.328;2022-09-30T18:57:01;15.30;68.30
70550;DHT22;58101;48.658;2.328;2022-09-30T18:59:27;15.30;68.50
70550;DHT22;58101;48.658;2.328;2022-09-30T19:01:53;15.20;68.50
70550;DHT22;58101;48.658;2.328;2022-09-30T19:04:20;15.40;68.70
70550;DHT22;58101;48.658;2.328;2022-09-30T19:06:45;15.40;69.10
70550;DHT22;58101;48.658;2.328;2022-09-30T19:09:12;15.20;69.00
70550;DHT22;58101;48.658;2.328;2022-09-30T19:11:38;15.30;69.20
70550;DHT22;58101;48.658;2.328;2022-09-30T19:14:13;15.20;69.00
70550;DHT22;58101;48.658;2.328;2022-09-30T19:16:40;15.20;69.30
70550;DHT22;58101;48.658;2.328;2022-09-30T19:19:07;15.20;69.50
70550;DHT22;58101;48.658;2.328;2022-09-30T19:21:39;15.20;69.80
70550;DHT22;58101;48.658;2.328;2022-09-30T19:24:06;15.20;70.10
70550;DHT22;58101;48.658;2.328;2022-09-30T19:26:34;15.20;70.40
70550;DHT22;58101;48.658;2.328;2022-09-30T19:29:00;15.10;70.50